sensor_id;sensor_type;location;lat;lon;timestamp;temperature;humidity
11650;DHT22;5881;48.522;7.682;2023-05-19T00:01:46;11.90;1.00
11650;DHT22;5881;48.522;7.682;2023-05-19T00:04:13;11.90;1.00
11650;DHT22;5881;48.522;7.682;2023-05-19T00:06:40;11.90;1.00
11650;DHT22;5881;48.522;7.682;2023-05-19T00:09:11;11.80;1.00
11650;DHT22;5881;48.522;7.682;2023-05-19T00:11:40;11.80;1.00
11650;DHT22;5881;48.522;7.682;2023-05-19T00:14:07;11.80;1.00
11650;DHT22;5881;48.522;7.682;2023-05-19T00:16:34;11.70;1.00
11650;DHT22;5881;48.522;7.682;2023-05-19T00:19:02;11.70;1.00
11650;DHT22;5881;48.522;7.682;2023-05-19T00:21:28;11.70;1.00
11650;DHT22;5881;48.522;7.682;2023-05-19T00:23:54;11.60;1.00
11650;DHT22;5881;48.522;7.682;2023-05-19T00:26:20;11.60;1.00
11650;DHT22;5881;48.522;7.682;2023-05-19T00:28:49;11.60;1.00
11650;DHT22;5881;48.522;7.682;2023-05-19T00:31:15;11.50;1.00
11650;DHT22;5881;48.522;7.682;2023-05-19T00:33:41;11.50;1.00
11650;DHT22;5881;48.522;7.682;2023-05-19T00:36:07;11.50;1.00
11650;DHT22;5881;48.522;7.682;2023-05-19T00:38:34;11.50;1.00
11650;DHT22;5881;48.522;7.682;2023-05-19T00:41:00;11.50;1.00
11650;DHT22;5881;48.522;7.682;2023-05-19T00:43:26;11.40;1.00
11650;DHT22;5881;48.522;7.682;2023-05-19T00:45:54;11.40;1.00
11650;DHT22;5881;48.522;7.682;2023-05-19T00:48:20;11.40;1.00
11650;DHT22;5881;48.522;7.682;2023-05-19T00:50:46;11.50;1.00
11650;DHT22;5881;48.522;7.682;2023-05-19T00:53:13;11.40;1.00
11650;DHT22;5881;48.522;7.682;2023-05-19T00:55:39;11.40;1.00
11650;DHT22;5881;48.522;7.682;2023-05-19T00:58:06;11.30;1.00
11650;DHT22;5881;48.522;7.682;2023-05-19T01:00:33;11.40;1.00
11650;DHT22;5881;48.522;7.682;2023-05-19T01:02:59;11.40;1.00
11650;DHT22;5881;48.522;7.682;2023-05-19T01:05:25;11.30;1.00
11650;DHT22;5881;48.522;7.682;2023-05-19T01:07:51;11.40;1.00
11650;DHT22;5881;48.522;7.682;2023-05-19T01:10:21;11.30;1.00
11650;DHT22;5881;48.522;7.682;2023-05-19T01:12:48;11.30;1.00
11650;DHT22;5881;48.522;7.682;2023-05-19T01:15:14;11.30;1.00
11650;DHT22;5881;48.522;7.682;2023-05-19T01:18:17;11.30;1.00
11650;DHT22;5881;48.522;7.682;2023-05-19T01:20:50;11.20;1.00
11650;DHT22;5881;48.522;7.682;2023-05-19T01:26:43;11.20;1.00
11650;DHT22;5881;48.522;7.682;2023-05-19T01:31:58;11.20;1.00
11650;DHT22;5881;48.522;7.682;2023-05-19T01:34:26;11.20;1.00
11650;DHT22;5881;48.522;7.682;2023-05-19T01:36:54;11.20;1.00
11650;DHT22;5881;48.522;7.682;2023-05-19T01:39:21;11.20;1.00
11650;DHT22;5881;48.522;7.682;2023-05-19T01:41:47;11.10;1.00
11650;DHT22;5881;48.522;7.682;2023-05-19T01:44:14;11.10;1.00
11650;DHT22;5881;48.522;7.682;2023-05-19T01:46:40;11.10;1.00
11650;DHT22;5881;48.522;7.682;2023-05-19T01:49:06;11.00;1.00
11650;DHT22;5881;48.522;7.682;2023-05-19T01:51:32;11.10;1.00
11650;DHT22;5881;48.522;7.682;2023-05-19T01:53:58;11.00;1.00
11650;DHT22;5881;48.522;7.682;2023-05-19T01:56:37;11.00;1.00
11650;DHT22;5881;48.522;7.682;2023-05-19T01:59:24;11.00;1.00
11650;DHT22;5881;48.522;7.682;2023-05-19T02:01:52;11.00;1.00
11650;DHT22;5881;48.522;7.682;2023-05-19T02:04:42;11.00;1.00
11650;DHT22;5881;48.522;7.682;2023-05-19T02:07:43;11.00;1.00
11650;DHT22;5881;48.522;7.682;2023-05-19T02:10:14;10.90;1.00
11650;DHT22;5881;48.522;7.682;2023-05-19T02:12:44;11.00;1.00
11650;DHT22;5881;48.522;7.682;2023-05-19T02:15:15;10.90;1.00
11650;DHT22;5881;48.522;7.682;2023-05-19T02:17:43;10.90;1.00
11650;DHT22;5881;48.522;7.682;2023-05-19T02:20:13;10.80;1.00
11650;DHT22;5881;48.522;7.682;2023-05-19T02:22:39;10.90;1.00
11650;DHT22;5881;48.522;7.682;2023-05-19T02:25:06;10.80;1.00
11650;DHT22;5881;48.522;7.682;2023-05-19T02:27:36;10.80;1.00
11650;DHT22;5881;48.522;7.682;2023-05-19T02:30:03;10.80;1.00
11650;DHT22;5881;48.522;7.682;2023-05-19T02:32:30;10.80;1.00
11650;DHT22;5881;48.522;7.682;2023-05-19T02:34:55;10.90;1.00
11650;DHT22;5881;48.522;7.682;2023-05-19T02:37:21;10.80;1.00
11650;DHT22;5881;48.522;7.682;2023-05-19T02:39:53;10.80;1.00
11650;DHT22;5881;48.522;7.682;2023-05-19T02:42:18;10.70;1.00
11650;DHT22;5881;48.522;7.682;2023-05-19T02:44:44;10.70;1.00
11650;DHT22;5881;48.522;7.682;2023-05-19T02:47:10;10.80;1.00
11650;DHT22;5881;48.522;7.682;2023-05-19T02:49:39;10.70;1.00
11650;DHT22;5881;48.522;7.682;2023-05-19T02:52:05;10.70;1.00
11650;DHT22;5881;48.522;7.682;2023-05-19T02:54:32;10.70;1.00
11650;DHT22;5881;48.522;7.682;2023-05-19T02:56:58;10.70;1.00
11650;DHT22;5881;48.522;7.682;2023-05-19T02:59:24;10.60;1.00
11650;DHT22;5881;48.522;7.682;2023-05-19T03:01:53;10.60;1.00
11650;DHT22;5881;48.522;7.682;2023-05-19T03:04:19;10.60;1.00
11650;DHT22;5881;48.522;7.682;2023-05-19T03:06:45;10.70;1.00
11650;DHT22;5881;48.522;7.682;2023-05-19T03:09:14;10.60;1.00
11650;DHT22;5881;48.522;7.682;2023-05-19T03:11:39;10.60;1.00
11650;DHT22;5881;48.522;7.682;2023-05-19T03:14:05;10.60;1.00
11650;DHT22;5881;48.522;7.682;2023-05-19T03:16:31;10.60;1.00
11650;DHT22;5881;48.522;7.682;2023-05-19T03:18:59;10.60;1.00
11650;DHT22;5881;48.522;7.682;2023-05-19T03:21:25;10.60;1.00
11650;DHT22;5881;48.522;7.682;2023-05-19T03:23:51;10.70;1.00
11650;DHT22;5881;48.522;7.682;2023-05-19T03:26:17;10.60;1.00
11650;DHT22;5881;48.522;7.682;2023-05-19T03:28:42;10.70;1.00
11650;DHT22;5881;48.522;7.682;2023-05-19T03:31:08;10.60;1.00
11650;DHT22;5881;48.522;7.682;2023-05-19T03:33:34;10.60;1.00
11650;DHT22;5881;48.522;7.682;2023-05-19T03:35:59;10.60;1.00
11650;DHT22;5881;48.522;7.682;2023-05-19T03:38:25;10.70;1.00
11650;DHT22;5881;48.522;7.682;2023-05-19T03:40:50;10.70;1.00
11650;DHT22;5881;48.522;7.682;2023-05-19T03:43:17;10.60;1.00
11650;DHT22;5881;48.522;7.682;2023-05-19T03:45:43;10.60;1.00
11650;DHT22;5881;48.522;7.682;2023-05-19T03:48:09;10.50;1.00
11650;DHT22;5881;48.522;7.682;2023-05-19T03:50:34;10.60;1.00
11650;DHT22;5881;48.522;7.682;2023-05-19T03:53:02;10.70;1.00
11650;DHT22;5881;48.522;7.682;2023-05-19T03:55:28;10.70;1.00
11650;DHT22;5881;48.522;7.682;2023-05-19T03:57:54;10.70;1.00
11650;DHT22;5881;48.522;7.682;2023-05-19T04:00:20;10.70;1.00
11650;DHT22;5881;48.522;7.682;2023-05-19T04:02:46;10.80;1.00
11650;DHT22;5881;48.522;7.682;2023-05-19T04:05:12;10.80;1.00
11650;DHT22;5881;48.522;7.682;2023-05-19T04:07:38;10.90;1.00
11650;DHT22;5881;48.522;7.682;2023-05-19T04:10:04;10.90;1.00
11650;DHT22;5881;48.522;7.682;2023-05-19T04:12:30;10.90;1.00
11650;DHT22;5881;48.522;7.682;2023-05-19T04:14:58;10.90;1.00
11650;DHT22;5881;48.522;7.682;2023-05-19T04:17:24;11.00;1.00
11650;DHT22;5881;48.522;7.682;2023-05-19T04:19:54;11.00;1.00
11650;DHT22;5881;48.522;7.682;2023-05-19T04:22:19;11.00;1.00
11650;DHT22;5881;48.522;7.682;2023-05-19T04:24:45;11.00;1.00
11650;DHT22;5881;48.522;7.682;2023-05-19T04:27:12;11.00;1.00
11650;DHT22;5881;48.522;7.682;2023-05-19T04:29:40;11.20;1.00
11650;DHT22;5881;48.522;7.682;2023-05-19T04:32:06;11.10;1.00
11650;DHT22;5881;48.522;7.682;2023-05-19T04:34:36;11.10;1.00
11650;DHT22;5881;48.522;7.682;2023-05-19T04:37:08;11.20;1.00
11650;DHT22;5881;48.522;7.682;2023-05-19T04:39:34;11.10;1.00
11650;DHT22;5881;48.522;7.682;2023-05-19T04:42:03;11.10;1.00
11650;DHT22;5881;48.522;7.682;2023-05-19T04:44:29;11.20;1.00
11650;DHT22;5881;48.522;7.682;2023-05-19T04:46:56;11.30;1.00
11650;DHT22;5881;48.522;7.682;2023-05-19T04:49:22;11.30;1.00
11650;DHT22;5881;48.522;7.682;2023-05-19T04:51:52;11.20;1.00
11650;DHT22;5881;48.522;7.682;2023-05-19T04:54:18;11.30;1.00
11650;DHT22;5881;48.522;7.682;2023-05-19T04:56:44;11.40;1.00
11650;DHT22;5881;48.522;7.682;2023-05-19T04:59:09;11.40;1.00
11650;DHT22;5881;48.522;7.682;2023-05-19T05:01:35;11.40;1.00
11650;DHT22;5881;48.522;7.682;2023-05-19T05:04:05;11.50;1.00
11650;DHT22;5881;48.522;7.682;2023-05-19T05:06:31;11.50;1.00
11650;DHT22;5881;48.522;7.682;2023-05-19T05:08:58;11.40;1.00
11650;DHT22;5881;48.522;7.682;2023-05-19T05:11:24;11.40;1.00
11650;DHT22;5881;48.522;7.682;2023-05-19T05:13:50;11.40;1.00
11650;DHT22;5881;48.522;7.682;2023-05-19T05:16:16;11.40;1.00
11650;DHT22;5881;48.522;7.682;2023-05-19T05:18:42;11.40;1.00
11650;DHT22;5881;48.522;7.682;2023-05-19T05:21:08;11.50;1.00
11650;DHT22;5881;48.522;7.682;2023-05-19T05:23:34;11.50;1.00
11650;DHT22;5881;48.522;7.682;2023-05-19T05:26:04;11.50;1.00
11650;DHT22;5881;48.522;7.682;2023-05-19T05:28:33;11.60;1.00
11650;DHT22;5881;48.522;7.682;2023-05-19T05:30:59;11.60;1.00
11650;DHT22;5881;48.522;7.682;2023-05-19T05:33:24;11.70;1.00
11650;DHT22;5881;48.522;7.682;2023-05-19T05:35:51;11.80;1.00
11650;DHT22;5881;48.522;7.682;2023-05-19T05:38:16;11.90;1.00
11650;DHT22;5881;48.522;7.682;2023-05-19T05:40:42;11.80;1.00
11650;DHT22;5881;48.522;7.682;2023-05-19T05:43:08;11.80;1.00
11650;DHT22;5881;48.522;7.682;2023-05-19T05:45:33;11.80;1.00
11650;DHT22;5881;48.522;7.682;2023-05-19T05:47:59;11.80;1.00
11650;DHT22;5881;48.522;7.682;2023-05-19T05:50:25;11.90;1.00
11650;DHT22;5881;48.522;7.682;2023-05-19T05:52:52;12.00;1.00
11650;DHT22;5881;48.522;7.682;2023-05-19T05:55:19;11.80;1.00
11650;DHT22;5881;48.522;7.682;2023-05-19T05:57:45;11.90;1.00
11650;DHT22;5881;48.522;7.682;2023-05-19T06:00:13;12.00;1.00
11650;DHT22;5881;48.522;7.682;2023-05-19T06:02:44;12.00;1.00
11650;DHT22;5881;48.522;7.682;2023-05-19T06:05:13;12.00;1.00
11650;DHT22;5881;48.522;7.682;2023-05-19T06:07:40;12.10;1.00
11650;DHT22;5881;48.522;7.682;2023-05-19T06:10:06;12.20;1.00
11650;DHT22;5881;48.522;7.682;2023-05-19T06:12:33;12.30;1.00
11650;DHT22;5881;48.522;7.682;2023-05-19T06:14:59;12.40;1.00
11650;DHT22;5881;48.522;7.682;2023-05-19T06:17:24;12.40;1.00
11650;DHT22;5881;48.522;7.682;2023-05-19T06:19:50;12.50;1.00
11650;DHT22;5881;48.522;7.682;2023-05-19T06:22:15;12.70;1.00
11650;DHT22;5881;48.522;7.682;2023-05-19T06:24:41;12.70;1.00
11650;DHT22;5881;48.522;7.682;2023-05-19T06:27:07;12.90;1.00
11650;DHT22;5881;48.522;7.682;2023-05-19T06:29:33;13.20;1.00
11650;DHT22;5881;48.522;7.682;2023-05-19T06:31:58;13.50;1.00
11650;DHT22;5881;48.522;7.682;2023-05-19T06:34:24;13.60;1.00
11650;DHT22;5881;48.522;7.682;2023-05-19T06:36:50;13.80;1.00
11650;DHT22;5881;48.522;7.682;2023-05-19T06:39:15;14.10;1.00
11650;DHT22;5881;48.522;7.682;2023-05-19T06:41:41;14.40;1.00
11650;DHT22;5881;48.522;7.682;2023-05-19T06:44:07;15.10;1.00
11650;DHT22;5881;48.522;7.682;2023-05-19T06:46:42;16.20;1.00
11650;DHT22;5881;48.522;7.682;2023-05-19T06:49:09;17.20;1.00
11650;DHT22;5881;48.522;7.682;2023-05-19T06:51:35;19.00;1.00
11650;DHT22;5881;48.522;7.682;2023-05-19T06:54:10;19.30;1.00
11650;DHT22;5881;48.522;7.682;2023-05-19T06:56:37;20.10;1.00
11650;DHT22;5881;48.522;7.682;2023-05-19T06:59:03;20.00;1.00
11650;DHT22;5881;48.522;7.682;2023-05-19T07:01:29;20.60;1.00
11650;DHT22;5881;48.522;7.682;2023-05-19T07:03:55;21.40;1.00
11650;DHT22;5881;48.522;7.682;2023-05-19T07:06:20;21.20;1.00
11650;DHT22;5881;48.522;7.682;2023-05-19T07:08:46;21.40;1.00
11650;DHT22;5881;48.522;7.682;2023-05-19T07:11:11;21.90;1.00
11650;DHT22;5881;48.522;7.682;2023-05-19T07:13:37;21.30;99.90
11650;DHT22;5881;48.522;7.682;2023-05-19T07:16:03;21.10;99.90
11650;DHT22;5881;48.522;7.682;2023-05-19T07:18:28;20.70;1.00
11650;DHT22;5881;48.522;7.682;2023-05-19T07:20:56;20.60;1.00
11650;DHT22;5881;48.522;7.682;2023-05-19T07:23:22;21.40;1.00
11650;DHT22;5881;48.522;7.682;2023-05-19T07:25:48;21.60;1.00
11650;DHT22;5881;48.522;7.682;2023-05-19T07:28:14;21.20;1.00
11650;DHT22;5881;48.522;7.682;2023-05-19T07:30:39;21.20;1.00
11650;DHT22;5881;48.522;7.682;2023-05-19T07:33:05;20.00;1.00
11650;DHT22;5881;48.522;7.682;2023-05-19T07:35:31;19.20;1.00
11650;DHT22;5881;48.522;7.682;2023-05-19T07:37:56;19.20;1.00
11650;DHT22;5881;48.522;7.682;2023-05-19T07:40:22;20.10;1.00
11650;DHT22;5881;48.522;7.682;2023-05-19T07:42:48;20.90;1.00
11650;DHT22;5881;48.522;7.682;2023-05-19T07:45:14;21.10;1.00
11650;DHT22;5881;48.522;7.682;2023-05-19T07:47:40;21.50;1.00
11650;DHT22;5881;48.522;7.682;2023-05-19T07:50:06;22.30;1.00
11650;DHT22;5881;48.522;7.682;2023-05-19T07:52:32;22.50;1.00
11650;DHT22;5881;48.522;7.682;2023-05-19T07:54:58;23.00;1.00
11650;DHT22;5881;48.522;7.682;2023-05-19T07:57:23;21.70;1.00
11650;DHT22;5881;48.522;7.682;2023-05-19T07:59:49;22.20;1.00
11650;DHT22;5881;48.522;7.682;2023-05-19T08:02:15;22.30;1.00
11650;DHT22;5881;48.522;7.682;2023-05-19T08:04:40;22.50;1.00
11650;DHT22;5881;48.522;7.682;2023-05-19T08:07:06;23.70;1.00
11650;DHT22;5881;48.522;7.682;2023-05-19T08:09:32;23.20;1.00
11650;DHT22;5881;48.522;7.682;2023-05-19T08:11:58;24.00;1.00
11650;DHT22;5881;48.522;7.682;2023-05-19T08:14:23;23.40;1.00
11650;DHT22;5881;48.522;7.682;2023-05-19T08:16:49;23.20;1.00
11650;DHT22;5881;48.522;7.682;2023-05-19T08:19:15;23.00;1.00
11650;DHT22;5881;48.522;7.682;2023-05-19T08:21:40;22.70;1.00
11650;DHT22;5881;48.522;7.682;2023-05-19T08:24:07;23.40;1.00
11650;DHT22;5881;48.522;7.682;2023-05-19T08:26:33;23.20;1.00
11650;DHT22;5881;48.522;7.682;2023-05-19T08:28:59;23.50;1.00
11650;DHT22;5881;48.522;7.682;2023-05-19T08:31:25;23.50;1.00
11650;DHT22;5881;48.522;7.682;2023-05-19T08:33:51;24.40;1.00
11650;DHT22;5881;48.522;7.682;2023-05-19T08:36:17;24.40;1.00
11650;DHT22;5881;48.522;7.682;2023-05-19T08:38:43;24.60;1.00
11650;DHT22;5881;48.522;7.682;2023-05-19T08:41:08;24.90;1.00
11650;DHT22;5881;48.522;7.682;2023-05-19T08:43:34;24.20;1.00
11650;DHT22;5881;48.522;7.682;2023-05-19T08:46:00;25.10;1.00
11650;DHT22;5881;48.522;7.682;2023-05-19T08:48:28;24.90;1.00
11650;DHT22;5881;48.522;7.682;2023-05-19T08:51:12;24.60;1.00
11650;DHT22;5881;48.522;7.682;2023-05-19T08:53:41;24.70;1.00
11650;DHT22;5881;48.522;7.682;2023-05-19T08:56:15;24.40;1.00
11650;DHT22;5881;48.522;7.682;2023-05-19T08:58:43;24.70;1.00
11650;DHT22;5881;48.522;7.682;2023-05-19T09:01:12;25.00;1.00
11650;DHT22;5881;48.522;7.682;2023-05-19T09:03:39;25.10;1.00
11650;DHT22;5881;48.522;7.682;2023-05-19T09:06:09;23.80;1.00
11650;DHT22;5881;48.522;7.682;2023-05-19T09:08:38;24.30;1.00
11650;DHT22;5881;48.522;7.682;2023-05-19T09:11:04;23.20;1.00
11650;DHT22;5881;48.522;7.682;2023-05-19T09:13:30;22.90;1.00
11650;DHT22;5881;48.522;7.682;2023-05-19T09:15:56;22.10;1.00
11650;DHT22;5881;48.522;7.682;2023-05-19T09:18:24;20.90;1.00
11650;DHT22;5881;48.522;7.682;2023-05-19T09:20:57;20.80;1.00
11650;DHT22;5881;48.522;7.682;2023-05-19T09:23:26;20.60;1.00
11650;DHT22;5881;48.522;7.682;2023-05-19T09:25:54;20.40;1.00
11650;DHT22;5881;48.522;7.682;2023-05-19T09:28:24;20.50;1.00
11650;DHT22;5881;48.522;7.682;2023-05-19T09:31:00;21.20;1.00
11650;DHT22;5881;48.522;7.682;2023-05-19T09:33:26;21.20;1.00
11650;DHT22;5881;48.522;7.682;2023-05-19T09:35:53;21.50;1.00
11650;DHT22;5881;48.522;7.682;2023-05-19T09:38:21;21.40;1.00
11650;DHT22;5881;48.522;7.682;2023-05-19T09:40:49;20.80;1.00
11650;DHT22;5881;48.522;7.682;2023-05-19T09:43:16;21.20;1.00
11650;DHT22;5881;48.522;7.682;2023-05-19T09:45:42;21.00;1.00
11650;DHT22;5881;48.522;7.682;2023-05-19T09:48:07;21.00;1.00
11650;DHT22;5881;48.522;7.682;2023-05-19T09:50:33;20.80;1.00
11650;DHT22;5881;48.522;7.682;2023-05-19T09:53:00;20.50;1.00
11650;DHT22;5881;48.522;7.682;2023-05-19T09:55:28;20.90;1.00
11650;DHT22;5881;48.522;7.682;2023-05-19T09:57:54;20.30;1.00
11650;DHT22;5881;48.522;7.682;2023-05-19T10:00:22;20.50;1.00
11650;DHT22;5881;48.522;7.682;2023-05-19T10:02:48;20.20;1.00
11650;DHT22;5881;48.522;7.682;2023-05-19T10:05:18;20.30;1.00
11650;DHT22;5881;48.522;7.682;2023-05-19T10:07:54;19.70;1.00
11650;DHT22;5881;48.522;7.682;2023-05-19T10:10:20;19.60;1.00
11650;DHT22;5881;48.522;7.682;2023-05-19T10:12:47;19.90;1.00
11650;DHT22;5881;48.522;7.682;2023-05-19T10:15:15;20.00;1.00
11650;DHT22;5881;48.522;7.682;2023-05-19T10:17:42;20.00;1.00
11650;DHT22;5881;48.522;7.682;2023-05-19T10:22:36;20.40;1.00
11650;DHT22;5881;48.522;7.682;2023-05-19T10:25:03;20.40;1.00
11650;DHT22;5881;48.522;7.682;2023-05-19T10:27:30;21.50;1.00
11650;DHT22;5881;48.522;7.682;2023-05-19T10:30:01;21.10;1.00
11650;DHT22;5881;48.522;7.682;2023-05-19T10:32:30;20.30;1.00
11650;DHT22;5881;48.522;7.682;2023-05-19T10:43:44;19.40;1.00
11650;DHT22;5881;48.522;7.682;2023-05-19T10:46:13;19.40;1.00
11650;DHT22;5881;48.522;7.682;2023-05-19T10:48:44;19.30;1.00
11650;DHT22;5881;48.522;7.682;2023-05-19T10:51:10;19.60;1.00
11650;DHT22;5881;48.522;7.682;2023-05-19T10:53:40;19.60;1.00
11650;DHT22;5881;48.522;7.682;2023-05-19T10:56:06;19.60;1.00
11650;DHT22;5881;48.522;7.682;2023-05-19T11:01:16;19.20;1.00
11650;DHT22;5881;48.522;7.682;2023-05-19T11:03:51;18.80;1.00
11650;DHT22;5881;48.522;7.682;2023-05-19T11:09:13;18.70;1.00
11650;DHT22;5881;48.522;7.682;2023-05-19T11:11:52;18.50;1.00
11650;DHT22;5881;48.522;7.682;2023-05-19T11:14:28;18.50;1.00
11650;DHT22;5881;48.522;7.682;2023-05-19T11:16:58;18.40;1.00
11650;DHT22;5881;48.522;7.682;2023-05-19T11:19:28;18.10;1.00
11650;DHT22;5881;48.522;7.682;2023-05-19T11:21:55;17.90;1.00
11650;DHT22;5881;48.522;7.682;2023-05-19T11:29:54;17.80;1.00
11650;DHT22;5881;48.522;7.682;2023-05-19T11:32:24;17.90;1.00
11650;DHT22;5881;48.522;7.682;2023-05-19T11:34:50;17.70;1.00
11650;DHT22;5881;48.522;7.682;2023-05-19T11:37:16;17.60;1.00
11650;DHT22;5881;48.522;7.682;2023-05-19T11:39:44;17.60;1.00
11650;DHT22;5881;48.522;7.682;2023-05-19T11:42:10;17.60;1.00
11650;DHT22;5881;48.522;7.682;2023-05-19T11:44:36;17.80;1.00
11650;DHT22;5881;48.522;7.682;2023-05-19T11:47:03;17.80;1.00
11650;DHT22;5881;48.522;7.682;2023-05-19T11:49:29;17.90;1.00
11650;DHT22;5881;48.522;7.682;2023-05-19T11:51:56;18.00;1.00
11650;DHT22;5881;48.522;7.682;2023-05-19T11:54:31;17.80;1.00
11650;DHT22;5881;48.522;7.682;2023-05-19T11:57:03;17.50;1.00
11650;DHT22;5881;48.522;7.682;2023-05-19T11:59:31;17.50;1.00
11650;DHT22;5881;48.522;7.682;2023-05-19T12:02:00;17.80;1.00
11650;DHT22;5881;48.522;7.682;2023-05-19T12:04:26;17.60;1.00
11650;DHT22;5881;48.522;7.682;2023-05-19T12:06:52;17.80;1.00
11650;DHT22;5881;48.522;7.682;2023-05-19T12:09:21;17.70;1.00
11650;DHT22;5881;48.522;7.682;2023-05-19T12:11:46;17.80;1.00
11650;DHT22;5881;48.522;7.682;2023-05-19T12:14:12;17.90;1.00
11650;DHT22;5881;48.522;7.682;2023-05-19T12:16:40;17.80;1.00
11650;DHT22;5881;48.522;7.682;2023-05-19T12:19:06;17.60;1.00
11650;DHT22;5881;48.522;7.682;2023-05-19T12:21:32;17.70;1.00
11650;DHT22;5881;48.522;7.682;2023-05-19T12:23:58;17.90;1.00
11650;DHT22;5881;48.522;7.682;2023-05-19T12:26:24;17.70;1.00
11650;DHT22;5881;48.522;7.682;2023-05-19T12:28:50;18.10;1.00
11650;DHT22;5881;48.522;7.682;2023-05-19T12:31:17;18.10;1.00
11650;DHT22;5881;48.522;7.682;2023-05-19T12:33:44;18.00;1.00
11650;DHT22;5881;48.522;7.682;2023-05-19T12:36:12;18.20;1.00
11650;DHT22;5881;48.522;7.682;2023-05-19T12:38:38;18.50;1.00
11650;DHT22;5881;48.522;7.682;2023-05-19T12:41:06;18.20;1.00
11650;DHT22;5881;48.522;7.682;2023-05-19T12:43:32;18.30;1.00
11650;DHT22;5881;48.522;7.682;2023-05-19T12:45:58;18.30;1.00
11650;DHT22;5881;48.522;7.682;2023-05-19T12:48:33;18.00;1.00
11650;DHT22;5881;48.522;7.682;2023-05-19T12:50:58;17.90;1.00
11650;DHT22;5881;48.522;7.682;2023-05-19T12:53:25;18.10;1.00
11650;DHT22;5881;48.522;7.682;2023-05-19T12:55:51;18.10;1.00
11650;DHT22;5881;48.522;7.682;2023-05-19T12:58:17;18.20;1.00
11650;DHT22;5881;48.522;7.682;2023-05-19T13:00:44;18.10;1.00
11650;DHT22;5881;48.522;7.682;2023-05-19T13:03:18;18.00;1.00
11650;DHT22;5881;48.522;7.682;2023-05-19T13:05:46;17.90;1.00
11650;DHT22;5881;48.522;7.682;2023-05-19T13:08:23;18.10;1.00
11650;DHT22;5881;48.522;7.682;2023-05-19T13:10:49;17.90;1.00
11650;DHT22;5881;48.522;7.682;2023-05-19T13:13:14;17.70;1.00
11650;DHT22;5881;48.522;7.682;2023-05-19T13:15:43;18.20;1.00
11650;DHT22;5881;48.522;7.682;2023-05-19T13:18:10;18.30;1.00
11650;DHT22;5881;48.522;7.682;2023-05-19T13:20:37;18.20;1.00
11650;DHT22;5881;48.522;7.682;2023-05-19T13:23:03;18.40;1.00
11650;DHT22;5881;48.522;7.682;2023-05-19T13:25:31;18.50;1.00
11650;DHT22;5881;48.522;7.682;2023-05-19T13:27:58;18.30;1.00
11650;DHT22;5881;48.522;7.682;2023-05-19T13:30:26;18.30;1.00
11650;DHT22;5881;48.522;7.682;2023-05-19T13:32:52;18.40;1.00
11650;DHT22;5881;48.522;7.682;2023-05-19T13:35:18;18.50;1.00
11650;DHT22;5881;48.522;7.682;2023-05-19T13:37:44;18.80;1.00
11650;DHT22;5881;48.522;7.682;2023-05-19T13:40:10;18.60;1.00
11650;DHT22;5881;48.522;7.682;2023-05-19T13:42:35;18.40;1.00
11650;DHT22;5881;48.522;7.682;2023-05-19T13:45:04;18.30;1.00
11650;DHT22;5881;48.522;7.682;2023-05-19T13:47:30;18.20;1.00
11650;DHT22;5881;48.522;7.682;2023-05-19T13:49:55;18.20;1.00
11650;DHT22;5881;48.522;7.682;2023-05-19T13:52:21;18.20;1.00
11650;DHT22;5881;48.522;7.682;2023-05-19T13:54:48;17.90;1.00
11650;DHT22;5881;48.522;7.682;2023-05-19T13:57:14;18.30;1.00
11650;DHT22;5881;48.522;7.682;2023-05-19T13:59:40;18.70;1.00
11650;DHT22;5881;48.522;7.682;2023-05-19T14:02:07;18.40;1.00
11650;DHT22;5881;48.522;7.682;2023-05-19T14:04:35;18.60;1.00
11650;DHT22;5881;48.522;7.682;2023-05-19T14:07:01;18.90;1.00
11650;DHT22;5881;48.522;7.682;2023-05-19T14:09:27;18.50;1.00
11650;DHT22;5881;48.522;7.682;2023-05-19T14:11:52;18.50;1.00
11650;DHT22;5881;48.522;7.682;2023-05-19T14:14:18;18.30;1.00
11650;DHT22;5881;48.522;7.682;2023-05-19T14:16:44;17.80;1.00
11650;DHT22;5881;48.522;7.682;2023-05-19T14:19:10;18.10;1.00
11650;DHT22;5881;48.522;7.682;2023-05-19T14:21:36;18.20;1.00
11650;DHT22;5881;48.522;7.682;2023-05-19T14:24:02;18.20;1.00
11650;DHT22;5881;48.522;7.682;2023-05-19T14:26:28;18.20;1.00
11650;DHT22;5881;48.522;7.682;2023-05-19T14:28:53;18.30;1.00
11650;DHT22;5881;48.522;7.682;2023-05-19T14:31:21;18.20;1.00
11650;DHT22;5881;48.522;7.682;2023-05-19T14:33:47;18.10;1.00
11650;DHT22;5881;48.522;7.682;2023-05-19T14:36:12;18.30;1.00
11650;DHT22;5881;48.522;7.682;2023-05-19T14:38:38;18.20;1.00
11650;DHT22;5881;48.522;7.682;2023-05-19T14:41:05;18.30;1.00
11650;DHT22;5881;48.522;7.682;2023-05-19T14:43:30;18.20;1.00
11650;DHT22;5881;48.522;7.682;2023-05-19T14:45:56;18.20;1.00
11650;DHT22;5881;48.522;7.682;2023-05-19T14:48:21;18.20;1.00
11650;DHT22;5881;48.522;7.682;2023-05-19T14:50:47;18.20;1.00
11650;DHT22;5881;48.522;7.682;2023-05-19T14:53:13;18.00;1.00
11650;DHT22;5881;48.522;7.682;2023-05-19T14:55:39;18.20;1.00
11650;DHT22;5881;48.522;7.682;2023-05-19T14:58:05;18.30;1.00
11650;DHT22;5881;48.522;7.682;2023-05-19T15:00:30;18.50;1.00
11650;DHT22;5881;48.522;7.682;2023-05-19T15:02:56;18.40;1.00
11650;DHT22;5881;48.522;7.682;2023-05-19T15:05:22;18.20;1.00
11650;DHT22;5881;48.522;7.682;2023-05-19T15:07:49;18.10;1.00
11650;DHT22;5881;48.522;7.682;2023-05-19T15:10:18;17.90;1.00
11650;DHT22;5881;48.522;7.682;2023-05-19T15:12:47;17.70;1.00
11650;DHT22;5881;48.522;7.682;2023-05-19T15:15:13;17.70;1.00
11650;DHT22;5881;48.522;7.682;2023-05-19T15:17:40;17.70;1.00
11650;DHT22;5881;48.522;7.682;2023-05-19T15:20:06;17.60;1.00
11650;DHT22;5881;48.522;7.682;2023-05-19T15:22:32;17.50;1.00
11650;DHT22;5881;48.522;7.682;2023-05-19T15:24:58;17.60;1.00
11650;DHT22;5881;48.522;7.682;2023-05-19T15:27:25;17.50;1.00
11650;DHT22;5881;48.522;7.682;2023-05-19T15:29:51;17.40;1.00
11650;DHT22;5881;48.522;7.682;2023-05-19T15:32:16;17.40;1.00
11650;DHT22;5881;48.522;7.682;2023-05-19T15:34:42;17.50;1.00
11650;DHT22;5881;48.522;7.682;2023-05-19T15:37:08;17.50;1.00
11650;DHT22;5881;48.522;7.682;2023-05-19T15:39:33;17.40;1.00
11650;DHT22;5881;48.522;7.682;2023-05-19T15:41:59;17.60;1.00
11650;DHT22;5881;48.522;7.682;2023-05-19T15:44:25;17.60;1.00
11650;DHT22;5881;48.522;7.682;2023-05-19T15:46:50;17.60;1.00
11650;DHT22;5881;48.522;7.682;2023-05-19T15:49:16;17.30;1.00
11650;DHT22;5881;48.522;7.682;2023-05-19T15:51:42;17.40;1.00
11650;DHT22;5881;48.522;7.682;2023-05-19T15:54:08;17.70;1.00
11650;DHT22;5881;48.522;7.682;2023-05-19T15:56:34;17.80;1.00
11650;DHT22;5881;48.522;7.682;2023-05-19T15:59:00;17.90;1.00
11650;DHT22;5881;48.522;7.682;2023-05-19T16:01:26;18.10;1.00
11650;DHT22;5881;48.522;7.682;2023-05-19T16:03:54;18.20;1.00
11650;DHT22;5881;48.522;7.682;2023-05-19T16:06:20;18.30;1.00
11650;DHT22;5881;48.522;7.682;2023-05-19T16:08:45;18.10;1.00
11650;DHT22;5881;48.522;7.682;2023-05-19T16:11:11;18.40;1.00
11650;DHT22;5881;48.522;7.682;2023-05-19T16:13:39;18.30;1.00
11650;DHT22;5881;48.522;7.682;2023-05-19T16:16:05;18.40;1.00
11650;DHT22;5881;48.522;7.682;2023-05-19T16:18:31;18.20;1.00
11650;DHT22;5881;48.522;7.682;2023-05-19T16:20:56;18.10;1.00
11650;DHT22;5881;48.522;7.682;2023-05-19T16:23:22;17.70;1.00
11650;DHT22;5881;48.522;7.682;2023-05-19T16:25:49;17.50;1.00
11650;DHT22;5881;48.522;7.682;2023-05-19T16:28:15;17.50;1.00
11650;DHT22;5881;48.522;7.682;2023-05-19T16:30:41;17.70;1.00